createdAt,value
2023-03-17T00:01:51.512Z,52.88
2023-03-17T00:04:19.589Z,52.67
2023-03-17T00:06:46.634Z,52.67
2023-03-17T00:09:14.908Z,52.51
2023-03-17T00:11:42.189Z,52.50
2023-03-17T00:14:09.253Z,52.56
2023-03-17T00:16:42.892Z,51.34
2023-03-17T00:19:26.599Z,51.49
2023-03-17T00:21:53.237Z,52.50
2023-03-17T00:24:19.684Z,52.74
2023-03-17T00:26:46.945Z,52.43
2023-03-17T00:29:13.514Z,51.89
2023-03-17T00:31:40.438Z,52.14
2023-03-17T00:34:08.037Z,52.09
2023-03-17T00:36:35.821Z,51.93
2023-03-17T00:39:02.332Z,51.92
2023-03-17T00:41:29.596Z,52.00
2023-03-17T00:43:57.243Z,52.07
2023-03-17T00:46:28.774Z,51.98
2023-03-17T00:48:55.510Z,51.97
2023-03-17T00:51:23.296Z,51.58
2023-03-17T00:53:49.959Z,51.66
2023-03-17T00:56:19.881Z,51.17
2023-03-17T00:58:47.627Z,51.73
2023-03-17T01:01:14.301Z,51.71
2023-03-17T01:03:41.514Z,51.93
2023-03-17T01:06:11.606Z,51.26
2023-03-17T01:08:40.769Z,51.69
2023-03-17T01:11:14.654Z,51.80
2023-03-17T01:13:41.696Z,51.79
2023-03-17T01:16:12.379Z,51.45
2023-03-17T01:18:39.660Z,51.61
2023-03-17T01:21:09.375Z,51.10
2023-03-17T01:23:35.860Z,51.88
2023-03-17T01:26:02.243Z,51.87
2023-03-17T01:28:29.035Z,51.95
2023-03-17T01:30:55.481Z,52.00
2023-03-17T01:33:22.145Z,51.95
2023-03-17T01:35:50.684Z,51.60
2023-03-17T01:38:17.482Z,51.98
2023-03-17T01:40:47.875Z,52.07
2023-03-17T01:43:24.160Z,50.95
2023-03-17T01:46:21.037Z,50.50
2023-03-17T01:49:06.737Z,50.79
2023-03-17T01:51:53.308Z,50.96
2023-03-17T01:54:28.745Z,51.67
2023-03-17T01:57:01.906Z,51.65
2023-03-17T01:59:33.713Z,51.50
2023-03-17T02:02:06.284Z,51.39
2023-03-17T02:04:33.986Z,51.94
2023-03-17T02:07:02.477Z,51.83
2023-03-17T02:09:29.274Z,52.17
2023-03-17T02:11:57.589Z,51.96
2023-03-17T02:14:24.279Z,51.99
2023-03-17T02:16:50.677Z,51.83
2023-03-17T02:19:17.188Z,52.05
2023-03-17T02:21:49.229Z,51.81
2023-03-17T02:24:33.111Z,50.51
2023-03-17T02:27:06.675Z,51.25
2023-03-17T02:29:35.856Z,51.69
2023-03-17T02:32:02.416Z,52.26
2023-03-17T02:34:28.816Z,52.14
2023-03-17T02:36:55.330Z,51.96
2023-03-17T02:39:21.717Z,51.43
2023-03-17T02:41:48.168Z,51.71
2023-03-17T02:44:14.522Z,51.77
2023-03-17T02:46:41.399Z,51.93
2023-03-17T02:49:08.467Z,51.82
2023-03-17T02:51:34.863Z,51.76
2023-03-17T02:54:01.742Z,51.53
2023-03-17T02:56:28.133Z,51.85
2023-03-17T02:58:54.509Z,51.92
2023-03-17T03:01:21.228Z,51.89
2023-03-17T03:03:48.023Z,51.66
2023-03-17T03:06:14.678Z,51.80
2023-03-17T03:08:41.111Z,51.51
2023-03-17T03:11:07.491Z,51.74
2023-03-17T03:13:33.890Z,51.62
2023-03-17T03:16:00.579Z,51.60
2023-03-17T03:18:27.097Z,51.64
2023-03-17T03:20:53.534Z,51.57
2023-03-17T03:23:19.935Z,51.57
2023-03-17T03:25:46.611Z,51.81
2023-03-17T03:28:13.603Z,51.69
2023-03-17T03:30:40.966Z,51.82
2023-03-17T03:33:07.775Z,51.25
2023-03-17T03:35:34.460Z,51.39
2023-03-17T03:38:01.506Z,51.45
2023-03-17T03:40:28.463Z,51.69
2023-03-17T03:42:54.926Z,51.33
2023-03-17T03:45:21.239Z,51.46
2023-03-17T03:47:47.549Z,51.37
2023-03-17T03:50:14.256Z,51.58
2023-03-17T03:52:40.922Z,51.64
2023-03-17T03:55:08.126Z,51.39
2023-03-17T03:57:34.852Z,51.54
2023-03-17T04:00:01.590Z,51.63
2023-03-17T04:02:28.004Z,51.29
2023-03-17T04:04:54.591Z,51.44
2023-03-17T04:07:21.356Z,51.55
2023-03-17T04:09:49.180Z,51.42
2023-03-17T04:12:17.665Z,51.32
2023-03-17T04:14:44.504Z,51.27
2023-03-17T04:17:11.972Z,51.24
2023-03-17T04:19:38.827Z,50.99
2023-03-17T04:22:07.364Z,51.20
2023-03-17T04:24:34.707Z,51.44
2023-03-17T04:27:04.195Z,51.03
2023-03-17T04:29:31.989Z,51.26
2023-03-17T04:31:58.398Z,51.23
2023-03-17T04:34:24.774Z,51.18
2023-03-17T04:36:51.508Z,50.95
2023-03-17T04:39:18.306Z,50.96
2023-03-17T04:41:44.793Z,50.96
2023-03-17T04:44:11.123Z,50.84
2023-03-17T04:46:38.230Z,50.91
2023-03-17T04:49:04.596Z,50.74
2023-03-17T04:51:31.194Z,50.85
2023-03-17T04:53:57.543Z,50.81
2023-03-17T04:56:23.937Z,50.88
2023-03-17T04:58:50.347Z,50.71
2023-03-17T05:01:17.203Z,50.72
2023-03-17T05:03:43.777Z,50.77
2023-03-17T05:06:10.148Z,50.84
2023-03-17T05:08:36.675Z,50.91
2023-03-17T05:11:03.015Z,50.80
2023-03-17T05:13:29.497Z,50.68
2023-03-17T05:15:56.906Z,50.69
2023-03-17T05:18:25.371Z,50.45
2023-03-17T05:20:52.179Z,50.72
2023-03-17T05:23:18.984Z,50.51
2023-03-17T05:25:45.674Z,50.66
2023-03-17T05:28:12.307Z,50.36
2023-03-17T05:30:38.851Z,50.38
2023-03-17T05:33:06.063Z,50.46
2023-03-17T05:35:32.539Z,50.43
2023-03-17T05:37:58.931Z,50.02
2023-03-17T05:40:25.298Z,50.19
2023-03-17T05:42:51.722Z,49.76
2023-03-17T05:45:18.592Z,50.17
2023-03-17T05:47:45.637Z,49.89
2023-03-17T05:50:12.762Z,50.06
2023-03-17T05:52:39.165Z,49.99
2023-03-17T05:55:06.242Z,50.27
2023-03-17T05:57:32.651Z,49.90
2023-03-17T05:59:58.997Z,50.07
2023-03-17T06:02:25.474Z,50.17
2023-03-17T06:04:52.099Z,49.91
2023-03-17T06:07:18.480Z,50.00
2023-03-17T06:09:44.815Z,49.91
2023-03-17T06:12:11.292Z,49.81
2023-03-17T06:14:37.638Z,50.09
2023-03-17T06:17:04.568Z,49.86
2023-03-17T06:19:31.023Z,49.91
2023-03-17T06:22:00.520Z,49.92
2023-03-17T06:24:26.987Z,49.91
2023-03-17T06:26:53.385Z,49.87
2023-03-17T06:29:20.154Z,49.99
2023-03-17T06:31:51.297Z,50.28
2023-03-17T06:34:18.795Z,50.10
2023-03-17T06:36:45.456Z,50.12
2023-03-17T06:39:12.805Z,49.79
2023-03-17T06:41:39.512Z,50.18
2023-03-17T06:44:06.392Z,49.91
2023-03-17T06:46:33.246Z,50.26
2023-03-17T06:48:59.705Z,50.13
2023-03-17T06:51:26.124Z,50.02
2023-03-17T06:53:52.815Z,50.17
2023-03-17T06:56:29.407Z,50.27
2023-03-17T06:58:56.901Z,50.16
2023-03-17T07:01:23.457Z,50.06
2023-03-17T07:03:49.948Z,50.25
2023-03-17T07:06:16.356Z,50.39
2023-03-17T07:08:42.829Z,50.19
2023-03-17T07:11:09.792Z,50.35
2023-03-17T07:13:38.623Z,50.45
2023-03-17T07:16:05.455Z,50.36
2023-03-17T07:18:34.688Z,50.17
2023-03-17T07:21:02.192Z,50.20
2023-03-17T07:23:30.312Z,50.24
2023-03-17T07:28:48.826Z,50.34
2023-03-17T07:31:15.395Z,50.03
2023-03-17T07:33:42.220Z,50.21
2023-03-17T07:36:09.218Z,50.05
2023-03-17T07:38:36.313Z,49.96
2023-03-17T07:41:04.664Z,50.20
2023-03-17T07:43:31.932Z,50.26
2023-03-17T07:45:58.859Z,50.18
2023-03-17T07:48:25.570Z,50.17
2023-03-17T07:50:52.287Z,50.06
2023-03-17T07:53:19.305Z,50.19
2023-03-17T07:55:45.848Z,50.13
2023-03-17T07:58:15.178Z,50.26
2023-03-17T08:00:42.351Z,50.24
2023-03-17T08:03:10.950Z,49.99
2023-03-17T08:05:38.079Z,50.17
2023-03-17T08:08:06.686Z,49.97
2023-03-17T08:10:33.739Z,50.15
2023-03-17T08:13:00.868Z,49.98
2023-03-17T08:15:27.519Z,50.01
2023-03-17T08:17:54.227Z,50.26
2023-03-17T08:20:21.836Z,49.79
2023-03-17T08:22:48.341Z,49.90
2023-03-17T08:25:15.071Z,49.34
2023-03-17T08:27:42.511Z,49.79
2023-03-17T08:30:10.040Z,49.71
2023-03-17T08:32:36.909Z,49.79
2023-03-17T08:35:05.715Z,49.63
2023-03-17T08:37:32.669Z,49.23
2023-03-17T08:39:59.143Z,49.14
2023-03-17T08:42:25.979Z,49.10
2023-03-17T08:44:52.478Z,49.37
2023-03-17T08:47:18.996Z,48.94
2023-03-17T08:49:45.561Z,49.18
2023-03-17T08:52:12.208Z,49.30
2023-03-17T08:54:38.880Z,49.47
2023-03-17T08:57:05.406Z,49.45
2023-03-17T08:59:31.900Z,49.43
2023-03-17T09:01:58.460Z,49.20
2023-03-17T09:04:25.888Z,49.15
2023-03-17T09:07:03.356Z,48.39
2023-03-17T09:09:31.134Z,48.04
2023-03-17T09:11:57.759Z,48.75
2023-03-17T09:14:25.040Z,48.39
2023-03-17T09:16:52.283Z,48.85
2023-03-17T09:19:19.131Z,48.51
2023-03-17T09:21:46.178Z,48.23
2023-03-17T09:24:13.694Z,48.05
2023-03-17T09:26:40.488Z,47.75
2023-03-17T09:29:07.500Z,48.26
2023-03-17T09:31:36.435Z,48.52
2023-03-17T09:34:06.374Z,46.99
2023-03-17T09:36:33.696Z,47.72
2023-03-17T09:39:01.367Z,48.00
2023-03-17T09:41:34.255Z,47.56
2023-03-17T09:44:19.703Z,46.41
2023-03-17T09:47:15.525Z,47.04
2023-03-17T09:49:48.547Z,47.64
2023-03-17T09:52:28.591Z,47.36
2023-03-17T09:54:56.014Z,49.38
2023-03-17T09:57:26.220Z,49.43
2023-03-17T10:00:01.529Z,45.38
2023-03-17T10:02:39.322Z,48.06
2023-03-17T10:05:27.846Z,46.74
2023-03-17T10:08:45.980Z,47.28
2023-03-17T10:11:31.394Z,49.24
2023-03-17T10:14:00.743Z,49.15
2023-03-17T10:16:54.846Z,47.73
2023-03-17T10:19:31.438Z,47.74
2023-03-17T10:22:04.274Z,48.20
2023-03-17T10:24:32.984Z,48.30
2023-03-17T10:27:04.654Z,48.21
2023-03-17T10:29:32.443Z,48.06
2023-03-17T10:31:59.097Z,48.35
2023-03-17T10:34:32.639Z,47.12
2023-03-17T10:37:06.921Z,45.56
2023-03-17T10:39:44.716Z,45.67
2023-03-17T10:42:19.669Z,46.55
2023-03-17T10:44:48.993Z,45.77
2023-03-17T10:47:39.681Z,43.41
2023-03-17T10:50:15.478Z,43.83
2023-03-17T10:52:42.434Z,46.84
2023-03-17T10:55:15.286Z,45.13
2023-03-17T10:58:09.954Z,43.97
2023-03-17T11:00:38.498Z,46.27
2023-03-17T11:03:18.441Z,44.96
2023-03-17T11:05:56.973Z,44.03
2023-03-17T11:08:24.063Z,46.12
2023-03-17T11:10:56.691Z,44.48
2023-03-17T11:13:29.260Z,44.30
2023-03-17T11:16:02.052Z,42.55
2023-03-17T11:18:34.849Z,43.52
2023-03-17T11:21:16.048Z,43.44
2023-03-17T11:23:48.677Z,45.68
2023-03-17T11:26:18.914Z,45.69
2023-03-17T11:29:07.871Z,42.33
2023-03-17T11:31:42.475Z,45.24
2023-03-17T11:34:20.029Z,42.60
2023-03-17T11:37:21.379Z,42.19
2023-03-17T11:39:59.815Z,44.91
2023-03-17T11:42:37.729Z,42.42
2023-03-17T11:45:23.773Z,39.66
2023-03-17T11:48:14.421Z,39.65
2023-03-17T11:50:49.888Z,43.28
2023-03-17T11:53:25.438Z,42.57
2023-03-17T11:56:01.657Z,39.54
2023-03-17T11:58:44.936Z,40.17
2023-03-17T12:01:19.386Z,41.05
2023-03-17T12:04:00.498Z,40.75
2023-03-17T12:06:38.398Z,41.31
2023-03-17T12:09:25.961Z,38.63
2023-03-17T12:11:56.469Z,41.10
2023-03-17T12:14:32.567Z,40.04
2023-03-17T12:17:10.797Z,37.92
2023-03-17T12:19:45.671Z,38.66
2023-03-17T12:22:12.108Z,40.84
2023-03-17T12:24:50.392Z,40.15
2023-03-17T12:27:27.241Z,39.00
2023-03-17T12:30:20.876Z,39.23
2023-03-17T12:32:50.402Z,39.61
2023-03-17T12:35:27.885Z,37.88
2023-03-17T12:37:58.137Z,39.35
2023-03-17T12:40:50.394Z,35.93
2023-03-17T12:43:41.295Z,34.94
2023-03-17T12:46:28.664Z,37.90
2023-03-17T12:49:22.983Z,35.28
2023-03-17T12:52:22.007Z,36.75
2023-03-17T12:54:51.974Z,39.57
2023-03-17T12:57:22.486Z,39.46
2023-03-17T12:59:57.576Z,39.73
2023-03-17T13:02:27.205Z,38.81
2023-03-17T13:05:00.815Z,39.56
2023-03-17T13:07:37.836Z,38.53
2023-03-17T13:10:14.007Z,37.21
2023-03-17T13:12:40.455Z,39.35
2023-03-17T13:15:25.349Z,36.85
2023-03-17T13:18:10.645Z,38.71
2023-03-17T13:20:40.225Z,39.00
2023-03-17T13:23:16.066Z,37.66
2023-03-17T13:25:42.930Z,39.46
2023-03-17T13:28:12.239Z,38.94
2023-03-17T13:30:38.727Z,40.23
2023-03-17T13:33:11.435Z,38.86
2023-03-17T13:35:53.001Z,41.08
2023-03-17T13:38:22.261Z,41.01
2023-03-17T13:41:07.003Z,40.85
2023-03-17T13:43:44.032Z,42.44
2023-03-17T13:46:39.293Z,40.39
2023-03-17T13:49:19.460Z,40.39
2023-03-17T13:52:07.188Z,40.16
2023-03-17T13:54:40.708Z,42.15
2023-03-17T13:57:27.272Z,41.29
2023-03-17T14:00:11.791Z,41.10
2023-03-17T14:02:39.944Z,41.38
2023-03-17T14:05:08.892Z,41.91
2023-03-17T14:07:47.946Z,39.97
2023-03-17T14:10:20.321Z,39.55
2023-03-17T14:13:22.356Z,39.39
2023-03-17T14:16:14.345Z,41.61
2023-03-17T14:18:47.265Z,39.60
2023-03-17T14:21:24.371Z,36.77
2023-03-17T14:23:56.188Z,37.87
2023-03-17T14:26:24.701Z,38.78
2023-03-17T14:28:51.498Z,39.07
2023-03-17T14:31:24.916Z,38.48
2023-03-17T14:33:56.428Z,40.07
2023-03-17T14:36:23.772Z,40.00
2023-03-17T14:38:52.871Z,39.76
2023-03-17T14:41:25.256Z,37.03
2023-03-17T14:43:54.399Z,40.16
2023-03-17T14:46:26.750Z,38.49
2023-03-17T14:48:58.428Z,37.65
2023-03-17T14:51:36.529Z,38.79
2023-03-17T14:54:12.344Z,37.37
2023-03-17T14:56:42.646Z,38.56
2023-03-17T14:59:34.423Z,37.70
2023-03-17T15:02:35.465Z,36.57
2023-03-17T15:05:17.238Z,37.28
2023-03-17T15:07:43.789Z,39.09
2023-03-17T15:10:19.305Z,38.67
2023-03-17T15:12:47.438Z,40.01
2023-03-17T15:15:22.023Z,39.10
2023-03-17T15:17:52.281Z,39.93
2023-03-17T15:20:19.882Z,40.60
2023-03-17T15:22:57.504Z,40.33
2023-03-17T15:25:33.013Z,41.44
2023-03-17T15:27:59.863Z,40.93
2023-03-17T15:30:29.454Z,40.44
2023-03-17T15:33:01.240Z,40.36
2023-03-17T15:35:27.903Z,40.68
2023-03-17T15:37:55.482Z,40.89
2023-03-17T15:40:22.221Z,41.35
2023-03-17T15:42:48.665Z,40.52
2023-03-17T15:45:16.714Z,39.98
2023-03-17T15:47:46.928Z,38.60
2023-03-17T15:50:17.833Z,38.43
2023-03-17T15:52:45.613Z,38.33
2023-03-17T15:55:19.866Z,37.11
2023-03-17T15:57:54.882Z,38.44
2023-03-17T16:00:24.589Z,38.07
2023-03-17T16:02:57.221Z,37.78
2023-03-17T16:05:27.711Z,37.95
2023-03-17T16:07:54.757Z,38.98
2023-03-17T16:10:26.698Z,38.73
2023-03-17T16:12:53.144Z,38.87
2023-03-17T16:15:25.703Z,38.11
2023-03-17T16:17:59.145Z,38.79
2023-03-17T16:20:41.610Z,38.48
2023-03-17T16:23:14.344Z,38.89
2023-03-17T16:25:41.530Z,39.78
2023-03-17T16:28:13.855Z,39.17
2023-03-17T16:30:40.720Z,40.16
2023-03-17T16:33:25.374Z,39.54
2023-03-17T16:35:54.393Z,40.47
2023-03-17T16:38:23.491Z,40.52
2023-03-17T16:41:00.942Z,39.83
2023-03-17T16:43:30.618Z,40.71
2023-03-17T16:45:59.260Z,40.77
2023-03-17T16:48:26.185Z,41.03
2023-03-17T16:50:53.378Z,41.27
2023-03-17T16:53:20.575Z,41.44
2023-03-17T16:55:47.802Z,41.55
2023-03-17T16:58:20.176Z,41.21
2023-03-17T17:00:48.510Z,41.58
2023-03-17T17:03:15.303Z,42.10
2023-03-17T17:05:42.591Z,41.78
2023-03-17T17:08:09.352Z,42.09
2023-03-17T17:10:37.084Z,41.68
2023-03-17T17:13:07.683Z,42.08
2023-03-17T17:15:36.125Z,42.32
2023-03-17T17:18:11.446Z,41.80
2023-03-17T17:20:40.196Z,42.30
2023-03-17T17:23:11.828Z,41.81
2023-03-17T17:25:38.702Z,42.56
2023-03-17T17:28:05.536Z,42.37
2023-03-17T17:30:32.539Z,42.88
2023-03-17T17:33:00.808Z,42.82
2023-03-17T17:35:32.001Z,42.77
2023-03-17T17:37:59.878Z,42.97
2023-03-17T17:40:26.799Z,42.92
2023-03-17T17:42:54.293Z,43.19
2023-03-17T17:45:21.434Z,43.37
2023-03-17T17:47:48.302Z,43.10
2023-03-17T17:50:25.616Z,42.49
2023-03-17T17:52:52.948Z,43.03
2023-03-17T17:55:19.538Z,43.31
2023-03-17T17:57:46.122Z,43.37
2023-03-17T18:00:16.660Z,43.30
2023-03-17T18:02:43.564Z,43.71
2023-03-17T18:05:10.936Z,43.60
2023-03-17T18:07:37.424Z,43.65
2023-03-17T18:10:05.609Z,43.81
2023-03-17T18:12:32.112Z,43.93
2023-03-17T18:14:58.641Z,43.83
2023-03-17T18:17:25.073Z,44.12
2023-03-17T18:19:55.494Z,43.99
2023-03-17T18:22:22.633Z,44.19
2023-03-17T18:24:49.344Z,44.10
2023-03-17T18:27:16.871Z,44.35
2023-03-17T18:29:43.945Z,44.44
2023-03-17T18:32:12.102Z,44.54
2023-03-17T18:34:43.470Z,43.97
2023-03-17T18:37:13.198Z,44.56
2023-03-17T18:39:41.097Z,44.53
2023-03-17T18:42:08.308Z,44.78
2023-03-17T18:44:34.993Z,44.68
2023-03-17T18:47:01.578Z,44.70
2023-03-17T18:49:28.418Z,44.90
2023-03-17T18:51:56.317Z,44.90
2023-03-17T18:54:23.698Z,44.99
2023-03-17T18:56:50.592Z,45.12
2023-03-17T18:59:17.019Z,45.39
2023-03-17T19:01:43.584Z,45.41
2023-03-17T19:04:10.031Z,45.36
2023-03-17T19:06:39.406Z,45.37
2023-03-17T19:09:06.722Z,45.33
2023-03-17T19:11:33.346Z,45.33
2023-03-17T19:13:59.781Z,45.79
2023-03-17T19:16:29.163Z,45.45
2023-03-17T19:18:56.813Z,45.33
2023-03-17T19:21:23.901Z,45.43
2023-03-17T19:23:51.098Z,45.97
2023-03-17T19:26:18.381Z,45.55
2023-03-17T19:28:45.036Z,45.47
2023-03-17T19:31:11.737Z,45.57
2023-03-17T19:33:38.653Z,45.71
2023-03-17T19:36:11.336Z,45.26
2023-03-17T19:38:38.365Z,45.72
2023-03-17T19:41:05.321Z,45.74
2023-03-17T19:43:40.377Z,45.62
2023-03-17T19:46:08.960Z,45.88
2023-03-17T19:48:36.513Z,45.74
2023-03-17T19:51:03.205Z,45.73
2023-03-17T19:53:29.882Z,45.80
2023-03-17T19:55:56.909Z,45.85
2023-03-17T19:58:23.510Z,45.85
2023-03-17T20:01:01.573Z,45.58
2023-03-17T20:03:28.415Z,45.96
2023-03-17T20:05:55.050Z,46.12
2023-03-17T20:08:22.519Z,46.26
2023-03-17T20:10:54.009Z,45.46
2023-03-17T20:13:21.921Z,45.99
2023-03-17T20:15:49.579Z,46.31
2023-03-17T20:18:17.078Z,46.30
2023-03-17T20:20:49.434Z,46.20
2023-03-17T20:23:16.829Z,46.42
2023-03-17T20:25:43.665Z,46.31
2023-03-17T20:28:11.462Z,46.47
2023-03-17T20:30:39.716Z,46.23
2023-03-17T20:33:08.307Z,46.36
2023-03-17T20:35:35.336Z,46.43
2023-03-17T20:38:02.005Z,46.46
2023-03-17T20:40:28.865Z,46.28
2023-03-17T20:42:55.873Z,46.50
2023-03-17T20:45:23.128Z,46.93
2023-03-17T20:47:49.960Z,46.67
2023-03-17T20:50:16.911Z,46.59
2023-03-17T20:52:43.780Z,46.49
2023-03-17T20:55:14.039Z,46.72
2023-03-17T20:57:42.600Z,46.52
2023-03-17T21:00:13.319Z,46.04
2023-03-17T21:02:39.899Z,46.62
2023-03-17T21:05:07.399Z,46.63
2023-03-17T21:07:33.992Z,46.67
2023-03-17T21:10:02.059Z,46.69
2023-03-17T21:12:28.632Z,46.69
2023-03-17T21:14:55.777Z,46.84
2023-03-17T21:17:22.813Z,46.96
2023-03-17T21:19:49.329Z,46.72
2023-03-17T21:22:16.134Z,46.87
2023-03-17T21:24:42.645Z,46.83
2023-03-17T21:27:11.290Z,47.03
2023-03-17T21:29:38.998Z,47.08
2023-03-17T21:32:08.397Z,46.85
2023-03-17T21:34:35.909Z,47.01
2023-03-17T21:37:02.579Z,47.27
2023-03-17T21:39:29.788Z,47.03
2023-03-17T21:41:57.091Z,47.22
2023-03-17T21:44:23.668Z,47.34
2023-03-17T21:46:50.879Z,47.26
2023-03-17T21:49:18.734Z,47.32
2023-03-17T21:51:46.681Z,47.32
2023-03-17T21:54:14.190Z,47.55
2023-03-17T21:56:41.603Z,47.36
2023-03-17T21:59:10.893Z,47.63
2023-03-17T22:01:39.548Z,47.56
2023-03-17T22:04:07.369Z,47.58
2023-03-17T22:06:34.239Z,47.84
2023-03-17T22:09:00.840Z,47.79
2023-03-17T22:11:27.306Z,47.81
2023-03-17T22:13:53.918Z,47.88
2023-03-17T22:16:21.771Z,47.81
2023-03-17T22:18:48.501Z,48.18
2023-03-17T22:21:15.113Z,48.23
2023-03-17T22:23:42.368Z,48.00
2023-03-17T22:26:12.544Z,48.01
2023-03-17T22:28:40.773Z,48.52
2023-03-17T22:31:18.894Z,48.18
2023-03-17T22:33:48.404Z,48.43
2023-03-17T22:36:15.825Z,48.49
2023-03-17T22:38:42.374Z,48.91
2023-03-17T22:41:13.126Z,48.89
2023-03-17T22:43:40.301Z,49.03
2023-03-17T22:46:10.563Z,49.20
2023-03-17T22:48:37.353Z,49.23
2023-03-17T22:51:06.078Z,49.18
2023-03-17T22:53:33.208Z,49.50
2023-03-17T22:56:00.762Z,49.51
2023-03-17T22:58:27.681Z,49.58
2023-03-17T23:00:55.248Z,49.38
2023-03-17T23:03:23.301Z,49.75
2023-03-17T23:05:52.203Z,49.73
2023-03-17T23:08:20.084Z,49.93
2023-03-17T23:10:50.997Z,50.02
2023-03-17T23:13:19.402Z,50.10
2023-03-17T23:15:46.766Z,50.13
2023-03-17T23:18:14.041Z,50.58
2023-03-17T23:20:40.980Z,50.72
2023-03-17T23:23:08.804Z,50.75
2023-03-17T23:25:36.663Z,51.07
2023-03-17T23:28:03.441Z,51.29
2023-03-17T23:30:30.877Z,51.51
2023-03-17T23:32:58.088Z,51.58
2023-03-17T23:35:25.264Z,52.07
2023-03-17T23:37:52.021Z,52.06
2023-03-17T23:40:22.112Z,52.49
2023-03-17T23:42:49.132Z,52.44
2023-03-17T23:45:19.160Z,52.76
2023-03-17T23:47:47.124Z,52.83
2023-03-17T23:50:15.797Z,53.19
2023-03-17T23:52:43.226Z,53.29
2023-03-17T23:55:12.062Z,53.62
2023-03-17T23:57:39.409Z,53.49
